Latest Coastal Weather Observations for Devonport Airport

IDV60701

Issued at 8:25 am EDT Monday 24 November 2014 (issued every 10 minutes, with the page automatically refreshed every 10 minutes)

About coastal observations | Map of coastal stations | Coastal observations for VIC | Marine services | Other Formats
Station Details ID: 091126 Name: DEVONPORT AIRPORT Lat: -41.17 Lon: 146.43 Height: 8.0 m
Data from the previous 72 hours. | See also: Recent months at Devonport Airport
Date/Time
EDT
Temp

°C
Wind Pressure Rain
since 9am
mm
Weather Cloud Vis
km
Sea
Height
m
Swell
Dir
 
Speed
knots
Gust
knots
hPa Trend Height
m
Period
s
Dir
24/08:00am 11.2 S 8 10 1010.7 - 0.0 - Partly cloudy 10 - - - -
24/07:30am 11.5 S 7 9 1011.4 - 0.0 - Cloudy 10 - - - -
24/07:00am 11.8 SSW 4 6 1010.9 - 0.0 - Cloudy 10 - - - -
24/06:30am 11.9 ENE 4 5 1010.2 - 0.0 - Partly cloudy 10 - - - -
24/06:00am 11.8 SSE 6 8 1010.6 - 0.0 - Cloudy 10 - - - -
24/05:30am 11.3 S 6 7 1011.1 - 0.0 - Cloudy 10 - - - -
24/05:00am 10.9 S 4 5 1011.1 - 0.0 - Cloudy 10 - - - -
24/04:30am 9.9 S 2 4 1011.6 - 0.0 - Partly cloudy 10 - - - -
24/04:00am 9.1 SE 3 3 1011.8 - 0.0 - - 10 - - - -
24/03:30am 8.7 SSE 3 3 1011.7 - 0.0 - - 10 - - - -
24/03:00am 8.5 S 4 5 1011.5 - 0.0 - - 10 - - - -
24/02:30am 9.0 SSW 3 4 1011.8 - 0.0 - - 10 - - - -
24/02:00am 9.0 S 3 5 1011.6 - 0.0 - - 10 - - - -
24/01:30am 9.6 CALM 0 0 1012.2 - 0.0 - - 10 - - - -
24/01:00am 10.2 CALM 0 0 1012.4 - 0.0 - - 10 - - - -
24/12:30am 11.3 CALM 0 0 1012.7 - 0.0 - - 10 - - - -
24/12:00am 12.8 WSW 5 6 1012.6 - 0.0 - - 10 - - - -
 
Date/Time
EDT
Temp

°C
Wind Pressure Rain
since 9am
mm
Weather Cloud Vis
km
Sea
Height
m
Swell
Dir
 
Speed
knots
Gust
knots
hPa Trend Height
m
Period
s
Dir
23/11:30pm 13.4 CALM 0 0 1012.5 - 0.0 - - 10 - - - -
23/11:00pm 15.4 SW 5 6 1012.5 - 0.0 - - 10 - - - -
23/10:30pm 16.1 SW 4 6 1012.5 - 0.0 - - 10 - - - -
23/10:00pm 14.6 W 6 7 1012.5 - 0.0 - - 10 - - - -
23/09:30pm 15.4 WSW 9 11 1012.3 - 0.0 - - 10 - - - -
23/09:00pm 15.3 W 9 11 1012.0 - 0.0 - - 10 - - - -
23/08:30pm 16.0 WNW 14 17 1011.6 - 0.0 - - 10 - - - -
23/08:00pm 15.9 WNW 17 21 1011.1 - 0.0 - - 10 - - - -
23/07:30pm 16.2 NW 21 25 1010.6 - 0.0 - - 10 - - - -
23/07:00pm 16.4 NW 23 29 1010.1 - 0.0 - - 10 - - - -
23/06:30pm 16.8 NW 23 29 1009.7 - 0.0 - - 10 - - - -
23/06:00pm 17.2 NW 23 30 1009.6 - 0.0 - - 10 - - - -
23/05:30pm 17.3 NW 24 30 1009.4 - 0.0 - - 10 - - - -
23/05:00pm 17.3 NW 23 30 1009.2 - 0.0 - - 10 - - - -
23/04:30pm 17.8 NNW 21 27 1009.4 - 0.0 - - 10 - - - -
23/04:00pm 17.3 NW 17 22 1009.1 - 0.0 - - 10 - - - -
23/03:30pm 17.8 NNW 16 21 1009.3 - 0.0 - - 10 - - - -
23/03:00pm 17.4 NW 17 22 1009.4 - 0.0 - - 10 - - - -
23/02:30pm 17.6 NW 16 23 1009.6 - 0.0 - - 10 - - - -
23/02:00pm 17.5 NW 17 21 1009.8 - 0.0 - - 10 - - - -
23/01:30pm 17.1 NW 17 22 1010.2 - 0.0 - - 10 - - - -
23/01:00pm 17.4 NW 17 22 1010.2 - 0.0 - - 10 - - - -
23/12:30pm 16.9 NW 19 23 1010.3 - 0.0 - - 10 - - - -
23/12:00pm 16.8 NNW 19 24 1010.4 - 0.0 - - 10 - - - -
23/11:30am 16.8 NNW 17 21 1010.4 - 0.0 - - 10 - - - -
23/11:00am 16.7 NW 16 21 1010.4 - 0.0 - - 10 - - - -
23/10:30am 16.5 NW 15 19 1010.2 - 0.0 - - 10 - - - -
23/10:00am 16.4 NW 14 17 1010.1 - 0.0 - - 10 - - - -
23/09:30am 16.2 NW 13 16 1009.9 - 0.0 - - 10 - - - -
23/09:00am 15.4 NW 12 15 1010.2 - 1.2 - - 10 - - - -
23/08:30am 15.1 WNW 13 16 1009.9 - 1.2 - - 10 - - - -
23/08:00am 14.7 WNW 11 14 1009.3 - 1.2 - - 10 - - - -
23/07:30am 14.4 W 7 9 1009.0 - 1.2 - - 10 - - - -
23/07:00am 13.2 WSW 8 10 1008.5 - 1.2 - - 10 - - - -
23/06:30am 11.3 WSW 8 10 1007.9 - 1.2 - - 10 - - - -
23/06:00am 11.1 WSW 9 11 1007.4 - 1.2 - - 10 - - - -
23/05:30am 11.9 SW 7 9 1006.9 - 1.2 - - 10 - - - -
23/05:00am 12.7 W 9 11 1006.7 - 1.2 - - 10 - - - -
23/04:30am 11.4 WSW 6 6 1006.3 - 1.0 - - 10 - - - -
23/04:00am 11.9 W 6 8 1006.0 - 1.0 - - 10 - - - -
23/03:30am 12.3 W 7 9 1005.9 - 1.0 - - 10 - - - -
23/03:00am 13.3 WNW 7 9 1005.9 - 1.0 - - 10 - - - -
23/02:30am 11.7 W 8 9 1006.2 - 1.0 - - 10 - - - -
23/02:13am 11.4 W 7 8 1006.1 - 1.0 - - 9 - - - -
23/02:00am 11.2 WSW 6 7 1005.9 - 1.0 - - 6 - - - -
23/01:30am 10.7 WSW 5 6 1005.4 - 1.0 - - 2 - - - -
23/01:00am 12.1 WSW 1 5 1005.6 - 1.0 - - 3 - - - -
23/12:50am 12.5 CALM 0 0 1005.7 - 1.0 - Partly cloudy 5 - - - -
23/12:30am 13.7 S 4 6 1005.7 - 1.0 - Partly cloudy 10 - - - -
23/12:00am 13.9 SSW 6 7 1005.7 - 1.0 Rain Cloudy 10 - - - -
 
Date/Time
EDT
Temp

°C
Wind Pressure Rain
since 9am
mm
Weather Cloud Vis
km
Sea
Height
m
Swell
Dir
 
Speed
knots
Gust
knots
hPa Trend Height
m
Period
s
Dir
22/11:30pm 14.0 S 8 10 1005.3 - 0.8 - Partly cloudy 10 - - - -
22/11:00pm 13.7 S 4 7 1006.1 - 0.8 - Partly cloudy 10 - - - -
22/10:30pm 13.0 SSW 2 7 1006.6 - 0.6 - Partly cloudy 10 - - - -
22/10:00pm 13.0 S 4 6 1006.8 - 0.6 - Partly cloudy 10 - - - -
22/09:30pm 12.9 SE 4 5 1006.4 - 0.6 - - 10 - - - -
22/09:00pm 14.1 ESE 3 4 1006.3 - 0.6 - Mostly cloudy 10 - - - -
22/08:30pm 14.4 ENE 4 5 1006.5 - 0.6 - Partly cloudy 10 - - - -
22/08:00pm 15.0 ENE 6 7 1006.6 - 0.6 - - 10 - - - -
22/07:30pm 15.7 NE 7 8 1006.5 - 0.6 - Partly cloudy 10 - - - -
22/07:00pm 16.0 ENE 8 10 1006.5 - 0.6 - - 10 - - - -
22/06:30pm 15.9 NE 8 10 1006.7 - 0.6 - Partly cloudy 10 - - - -
22/06:00pm 15.7 NE 8 10 1007.0 - 0.6 - Cloudy 10 - - - -
22/05:30pm 16.0 NNE 8 9 1007.0 - 0.6 - Partly cloudy 10 - - - -
22/05:00pm 16.6 NE 8 11 1007.0 - 0.6 - Partly cloudy 10 - - - -
22/04:30pm 16.4 ENE 7 10 1007.3 - 0.6 - Partly cloudy 10 - - - -
22/04:00pm 15.9 ENE 8 10 1007.7 - 0.6 - Partly cloudy 10 - - - -
22/03:30pm 15.0 NE 6 9 1008.5 - 0.4 - Partly cloudy 10 - - - -
22/03:26pm 14.8 NE 6 7 1008.6 - 0.4 - Partly cloudy 10 - - - -
22/03:00pm 15.5 NNE 7 9 1009.1 - 0.0 - Mostly cloudy 10 - - - -
22/02:30pm 16.0 NE 7 9 1009.1 - 0.0 - Cloudy 10 - - - -
22/02:25pm 15.8 NE 8 11 1009.1 - 0.0 - Cloudy 10 - - - -
22/02:00pm 15.3 NE 10 11 1009.1 - 0.0 - Partly cloudy 10 - - - -
22/01:30pm 15.3 NE 9 11 1010.0 - 0.0 - Partly cloudy 10 - - - -
22/01:00pm 14.9 NNE 9 11 1010.6 - 0.0 - Partly cloudy 10 - - - -
22/12:30pm 15.7 NE 8 12 1010.3 - 0.0 - Partly cloudy 10 - - - -
22/12:00pm 16.3 NE 10 13 1010.3 - 0.0 - Mostly clear 10 - - - -
22/11:30am 16.0 NE 9 12 1010.6 - 0.0 - - 10 - - - -
22/11:00am 15.4 NE 8 10 1010.9 - 0.0 - Partly cloudy 10 - - - -
22/10:30am 14.7 NNE 6 8 1011.2 - 0.0 - Cloudy 10 - - - -
22/10:00am 14.2 E 4 7 1010.8 - 0.0 - Cloudy 10 - - - -
22/09:46am 13.9 SE 3 5 1011.4 - 0.0 - Partly cloudy 10 - - - -
22/09:30am 13.5 SSE 4 5 1011.5 - 0.0 - Partly cloudy 10 - - - -
22/09:00am 13.0 SSE 6 7 1011.3 - 0.2 Drizzle Cloudy 10 - - - -
22/08:30am 12.1 SSE 7 9 1011.4 - 0.2 - Partly cloudy 10 - - - -
22/08:00am 11.6 S 5 7 1012.0 - 0.2 - Partly cloudy 10 - - - -
22/07:57am 11.5 S 5 6 1012.0 - 0.2 - Partly cloudy 10 - - - -
22/07:30am 11.0 S 5 6 1011.9 - 0.2 - Partly cloudy 10 - - - -
22/07:00am 10.2 S 6 7 1011.6 - 0.2 - Partly cloudy 10 - - - -
22/06:30am 8.6 S 6 7 1011.7 - 0.2 - Partly cloudy 10 - - - -
22/06:00am 7.7 S 7 8 1011.1 - 0.2 - Mostly cloudy 10 - - - -
22/05:30am 6.7 S 7 9 1010.8 - 0.2 - - 10 - - - -
22/05:00am 6.4 S 7 8 1010.5 - 0.2 - - 10 - - - -
22/04:30am 6.1 SSW 6 8 1010.2 - 0.2 - - 10 - - - -
22/04:00am 6.6 SSW 4 5 1010.2 - 0.2 - - 10 - - - -
22/03:30am 7.0 S 4 5 1009.9 - 0.2 - - 10 - - - -
22/03:00am 7.2 S 6 7 1009.7 - 0.2 - - 10 - - - -
22/02:30am 7.0 SSE 4 5 1009.9 - 0.2 - - 10 - - - -
22/02:00am 7.0 SW 1 4 1010.5 - 0.2 - - 10 - - - -
22/01:30am 8.7 WSW 3 4 1011.2 - 0.2 - - 10 - - - -
22/01:00am 9.9 WNW 8 10 1011.7 - 0.2 - - 10 - - - -
22/12:30am 10.0 WNW 7 8 1011.8 - 0.2 - - 10 - - - -
22/12:00am 11.4 WSW 3 5 1011.7 - 0.2 - - 10 - - - -
 
Date/Time
EDT
Temp

°C
Wind Pressure Rain
since 9am
mm
Weather Cloud Vis
km
Sea
Height
m
Swell
Dir
 
Speed
knots
Gust
knots
hPa Trend Height
m
Period
s
Dir
21/11:30pm 10.5 W 5 7 1011.8 - 0.2 - - 10 - - - -
21/11:00pm 11.9 W 10 13 1011.7 - 0.2 - - 10 - - - -
21/10:30pm 13.8 WNW 15 18 1011.6 - 0.2 - - 10 - - - -
21/10:00pm 14.1 WNW 15 18 1011.5 - 0.2 - - 10 - - - -
21/09:30pm 14.4 NW 16 19 1011.2 - 0.2 - - 10 - - - -
21/09:00pm 14.5 WNW 15 20 1010.6 - 0.2 - - 10 - - - -
21/08:30pm 14.4 NW 19 24 1010.2 - 0.2 - - 10 - - - -
21/08:00pm 14.5 NW 17 21 1009.7 - 0.2 - - 10 - - - -
21/07:30pm 15.0 NW 18 22 1009.3 - 0.2 - - 10 - - - -
21/07:00pm 15.3 NW 18 23 1008.7 - 0.2 - - 10 - - - -
21/06:30pm 15.7 NW 18 23 1008.1 - 0.2 - - 10 - - - -
21/06:00pm 16.0 NW 19 25 1007.8 - 0.2 - - 10 - - - -
21/05:30pm 16.2 NW 19 23 1007.7 - 0.2 - Partly cloudy 10 - - - -
21/05:00pm 16.3 NNW 17 23 1007.5 - 0.2 - - 10 - - - -
21/04:30pm 16.7 NNW 16 20 1007.2 - 0.2 - Partly cloudy 10 - - - -
21/04:00pm 17.8 WNW 15 19 1007.2 - 0.2 - Partly cloudy 10 - - - -
21/03:30pm 18.8 W 13 19 1007.2 - 0.2 - - 10 - - - -
21/03:00pm 19.1 WSW 15 20 1006.9 - 0.2 - - 10 - - - -
21/02:30pm 19.2 W 15 23 1006.7 - 0.2 - Partly cloudy 10 - - - -
21/02:00pm 18.5 W 17 21 1006.8 - 0.2 - Partly cloudy 10 - - - -
21/01:30pm 18.9 W 17 24 1006.6 - 0.2 - Partly cloudy 10 - - - -
21/01:00pm 17.5 W 13 21 1006.6 - 0.2 - Partly cloudy 10 - - - -
21/12:30pm 17.8 W 13 17 1006.3 - 0.2 - Partly cloudy 10 - - - -
21/12:00pm 16.6 W 14 19 1006.1 - 0.0 - Cloudy 10 - - - -
21/11:30am 15.3 W 18 22 1006.1 - 0.0 - Partly cloudy 10 - - - -
21/11:00am 15.1 W 14 18 1005.7 - 0.0 - Partly cloudy 10 - - - -
21/10:30am 14.7 W 17 21 1005.6 - 0.0 - Partly cloudy 10 - - - -
21/10:00am 15.7 W 20 25 1005.1 - 0.0 - Partly cloudy 10 - - - -
21/09:30am 15.6 W 16 22 1004.7 - 0.0 - Partly cloudy 10 - - - -
21/09:00am 15.0 WNW 16 20 1004.5 - 5.8 - Cloudy 10 - - - -
21/08:30am 14.8 WNW 16 19 1003.8 - 5.8 - - 10 - - - -

Other Formats:

Comma delimited format used in spreadsheet applications
http://www.bom.gov.au/fwo/IDV60701/IDV60701.95960.axf

JavaScript Object Notation format (JSON) in row-major order
http://www.bom.gov.au/fwo/IDV60701/IDV60701.95960.json